createdAt,value
2023-05-09T00:00:09.944Z,1021.6
2023-05-09T00:01:25.152Z,1021.6
2023-05-09T00:02:41.335Z,1021.5
2023-05-09T00:03:57.522Z,1021.6
2023-05-09T00:05:13.849Z,1021.6
2023-05-09T00:06:29.891Z,1021.6
2023-05-09T00:07:46.084Z,1021.5
2023-05-09T00:09:02.418Z,1021.6
2023-05-09T00:10:18.471Z,1021.5
2023-05-09T00:11:34.791Z,1021.5
2023-05-09T00:12:50.848Z,1021.6
2023-05-09T00:14:07.042Z,1021.5
2023-05-09T00:15:23.367Z,1021.5
2023-05-09T00:16:39.407Z,1021.5
2023-05-09T00:17:54.756Z,1021.6
2023-05-09T00:19:10.796Z,1021.5
2023-05-09T00:20:27.131Z,1021.5
2023-05-09T00:21:43.329Z,1021.6
2023-05-09T00:22:59.381Z,1021.5
2023-05-09T00:24:15.716Z,1021.5
2023-05-09T00:25:31.757Z,1021.5
2023-05-09T00:26:48.074Z,1021.5
2023-05-09T00:28:04.121Z,1021.5
2023-05-09T00:29:20.314Z,1021.5
2023-05-09T00:30:36.641Z,1021.5
2023-05-09T00:31:52.697Z,1021.5
2023-05-09T00:33:09.033Z,1021.6
2023-05-09T00:34:24.240Z,1021.5
2023-05-09T00:35:40.424Z,1021.5
2023-05-09T00:36:56.614Z,1021.5
2023-05-09T00:38:12.647Z,1021.5
2023-05-09T00:39:28.849Z,1021.5
2023-05-09T00:40:45.024Z,1021.5
2023-05-09T00:42:01.215Z,1021.5
2023-05-09T00:43:17.562Z,1021.5
2023-05-09T00:44:33.750Z,1021.5
2023-05-09T00:45:49.937Z,1021.5
2023-05-09T00:47:06.116Z,1021.5
2023-05-09T00:48:22.156Z,1021.5
2023-05-09T00:49:38.489Z,1021.5
2023-05-09T00:50:53.557Z,1021.5
2023-05-09T00:52:09.897Z,1021.5
2023-05-09T00:53:25.930Z,1021.5
2023-05-09T00:54:42.117Z,1021.5
2023-05-09T00:55:58.459Z,1021.4
2023-05-09T00:57:14.504Z,1021.4
2023-05-09T00:58:29.862Z,1021.4
2023-05-09T00:59:46.037Z,1021.4
2023-05-09T01:01:02.238Z,1021.3
2023-05-09T01:02:18.424Z,1021.4
2023-05-09T01:03:34.467Z,1021.4
2023-05-09T01:04:50.793Z,1021.4
2023-05-09T01:06:06.836Z,1021.3
2023-05-09T01:07:23.017Z,1021.3
2023-05-09T01:08:39.371Z,1021.3
2023-05-09T01:09:55.400Z,1021.3
2023-05-09T01:11:11.600Z,1021.4
2023-05-09T01:12:27.939Z,1021.3
2023-05-09T01:13:44.132Z,1021.3
2023-05-09T01:14:59.339Z,1021.3
2023-05-09T01:16:15.512Z,1021.2
2023-05-09T01:17:31.553Z,1021.1
2023-05-09T01:18:47.744Z,1021.2
2023-05-09T01:20:03.934Z,1021.2
2023-05-09T01:21:20.264Z,1021.3
2023-05-09T01:22:36.292Z,1021.2
2023-05-09T01:23:52.649Z,1021.2
2023-05-09T01:25:08.844Z,1021.2
2023-05-09T01:26:24.860Z,1021.2
2023-05-09T01:27:41.212Z,1021.2
2023-05-09T01:28:57.243Z,1021.2
2023-05-09T01:30:13.428Z,1021.3
2023-05-09T01:31:28.805Z,1021.2
2023-05-09T01:32:44.989Z,1021.2
2023-05-09T01:34:01.011Z,1021.2
2023-05-09T01:35:17.195Z,1021.2
2023-05-09T01:36:33.553Z,1021.2
2023-05-09T01:37:49.582Z,1021.2
2023-05-09T01:39:05.925Z,1021.2
2023-05-09T01:40:22.128Z,1021.2
2023-05-09T01:41:38.312Z,1021.1
2023-05-09T01:42:54.328Z,1021.2
2023-05-09T01:44:10.686Z,1021.2
2023-05-09T01:45:26.711Z,1021.1
2023-05-09T01:46:43.055Z,1021
2023-05-09T01:47:58.109Z,1021.1
2023-05-09T01:49:14.284Z,1021.1
2023-05-09T01:50:30.653Z,1021
2023-05-09T01:51:46.662Z,1021
2023-05-09T01:53:03.023Z,1021.1
2023-05-09T01:54:19.039Z,1021
2023-05-09T01:55:35.230Z,1021.1
2023-05-09T01:56:51.421Z,1021.1
2023-05-09T01:58:07.780Z,1021.1
2023-05-09T01:59:23.960Z,1021
2023-05-09T02:00:39.983Z,1021
2023-05-09T02:01:56.190Z,1021
2023-05-09T02:03:12.534Z,1021
2023-05-09T02:04:27.582Z,1021
2023-05-09T02:05:43.935Z,1021
2023-05-09T02:07:00.121Z,1021
2023-05-09T02:08:16.306Z,1021.1
2023-05-09T02:09:32.332Z,1021
2023-05-09T02:10:48.514Z,1021
2023-05-09T02:12:04.705Z,1021
2023-05-09T02:13:20.892Z,1021
2023-05-09T02:14:37.256Z,1021
2023-05-09T02:15:53.437Z,1021
2023-05-09T02:17:09.634Z,1021
2023-05-09T02:18:25.816Z,1021
2023-05-09T02:19:41.846Z,1021
2023-05-09T02:20:57.047Z,1020.9
2023-05-09T02:22:13.399Z,1021
2023-05-09T02:23:29.598Z,1021
2023-05-09T02:24:45.614Z,1021
2023-05-09T02:26:01.962Z,1021
2023-05-09T02:27:18.152Z,1020.9
2023-05-09T02:28:34.338Z,1021
2023-05-09T02:29:50.356Z,1021
2023-05-09T02:31:06.554Z,1021
2023-05-09T02:32:22.917Z,1021
2023-05-09T02:33:39.097Z,1021
2023-05-09T02:34:55.107Z,1021
2023-05-09T02:36:11.297Z,1021
2023-05-09T02:37:26.675Z,1021
2023-05-09T02:38:42.687Z,1021
2023-05-09T02:39:58.895Z,1021
2023-05-09T02:41:15.241Z,1021
2023-05-09T02:42:31.269Z,1021
2023-05-09T02:43:47.637Z,1021
2023-05-09T02:45:03.815Z,1021
2023-05-09T02:46:20.004Z,1021.1
2023-05-09T02:47:36.196Z,1021
2023-05-09T02:48:52.382Z,1021
2023-05-09T02:50:08.402Z,1021
2023-05-09T02:51:24.594Z,1021
2023-05-09T02:52:40.945Z,1021
2023-05-09T02:53:56.146Z,1021
2023-05-09T02:55:12.339Z,1021
2023-05-09T02:56:28.524Z,1021
2023-05-09T02:57:44.535Z,1021
2023-05-09T02:59:00.911Z,1021
2023-05-09T03:00:17.096Z,1021
2023-05-09T03:01:33.106Z,1021
2023-05-09T03:02:49.479Z,1021
2023-05-09T03:04:05.493Z,1021
2023-05-09T03:05:21.676Z,1021
2023-05-09T03:06:37.871Z,1021
2023-05-09T03:07:54.237Z,1021
2023-05-09T03:09:10.430Z,1021
2023-05-09T03:10:25.621Z,1020.9
2023-05-09T03:11:41.818Z,1020.9
2023-05-09T03:12:58.008Z,1021
2023-05-09T03:14:14.194Z,1020.9
2023-05-09T03:15:30.381Z,1020.9
2023-05-09T03:16:46.388Z,1020.9
2023-05-09T03:18:02.755Z,1020.9
2023-05-09T03:19:18.939Z,1020.9
2023-05-09T03:20:35.143Z,1021
2023-05-09T03:21:51.326Z,1020.9
2023-05-09T03:23:07.514Z,1020.8
2023-05-09T03:24:23.515Z,1020.9
2023-05-09T03:25:39.894Z,1020.9
2023-05-09T03:26:54.917Z,1020.8
2023-05-09T03:28:11.281Z,1020.8
2023-05-09T03:29:27.287Z,1020.8
2023-05-09T03:30:43.670Z,1020.8
2023-05-09T03:31:59.851Z,1020.8
2023-05-09T03:33:15.853Z,1020.8
2023-05-09T03:34:32.050Z,1020.8
2023-05-09T03:35:48.411Z,1020.8
2023-05-09T03:37:04.609Z,1020.8
2023-05-09T03:38:20.805Z,1020.8
2023-05-09T03:39:36.981Z,1020.9
2023-05-09T03:40:53.178Z,1020.9
2023-05-09T03:42:09.172Z,1020.9
2023-05-09T03:43:24.579Z,1020.9
2023-05-09T03:44:40.758Z,1020.8
2023-05-09T03:45:56.952Z,1020.8
2023-05-09T03:47:13.127Z,1020.8
2023-05-09T03:48:29.319Z,1020.8
2023-05-09T03:49:45.315Z,1020.9
2023-05-09T03:51:01.697Z,1020.8
2023-05-09T03:52:17.884Z,1020.9
2023-05-09T03:53:34.075Z,1020.9
2023-05-09T03:54:50.064Z,1020.9
2023-05-09T03:56:06.458Z,1020.9
2023-05-09T03:57:22.652Z,1021
2023-05-09T03:58:38.632Z,1020.9
2023-05-09T03:59:54.037Z,1020.9
2023-05-09T04:01:10.226Z,1020.9
2023-05-09T04:02:26.220Z,1020.9
2023-05-09T04:03:42.612Z,1020.9
2023-05-09T04:04:58.795Z,1020.8
2023-05-09T04:06:14.789Z,1020.9
2023-05-09T04:07:30.980Z,1020.8
2023-05-09T04:08:47.371Z,1020.8
2023-05-09T04:10:03.364Z,1020.9
2023-05-09T04:11:19.747Z,1020.8
2023-05-09T04:12:35.724Z,1020.8
2023-05-09T04:13:52.110Z,1020.9
2023-05-09T04:16:24.488Z,1020.9
2023-05-09T04:17:39.492Z,1020.8
2023-05-09T04:18:55.684Z,1020.8
2023-05-09T04:20:11.878Z,1020.8
2023-05-09T04:21:28.074Z,1020.8
2023-05-09T04:24:00.648Z,1020.8
2023-05-09T04:25:16.825Z,1020.8
2023-05-09T04:26:33.018Z,1020.8
2023-05-09T04:27:49.207Z,1020.8
2023-05-09T04:29:05.196Z,1020.9
2023-05-09T04:30:21.393Z,1020.9
2023-05-09T04:31:37.785Z,1020.8
2023-05-09T04:32:53.754Z,1020.8
2023-05-09T04:34:08.963Z,1020.9
2023-05-09T04:35:25.365Z,1020.8
2023-05-09T04:36:41.350Z,1020.8
2023-05-09T04:37:57.741Z,1020.7
2023-05-09T04:39:13.922Z,1020.8
2023-05-09T04:40:30.105Z,1020.7
2023-05-09T04:41:46.310Z,1020.8
2023-05-09T04:43:02.290Z,1020.8
2023-05-09T04:44:18.466Z,1020.7
2023-05-09T04:45:34.655Z,1020.8
2023-05-09T04:46:51.060Z,1020.8
2023-05-09T04:48:07.031Z,1020.9
2023-05-09T04:49:23.443Z,1020.8
2023-05-09T04:50:38.647Z,1020.8
2023-05-09T04:51:54.628Z,1020.8
2023-05-09T04:53:10.810Z,1020.8
2023-05-09T04:54:27.219Z,1020.8
2023-05-09T04:55:43.188Z,1020.8
2023-05-09T04:56:59.378Z,1020.9
2023-05-09T04:58:15.780Z,1020.8
2023-05-09T04:59:31.752Z,1020.8
2023-05-09T05:00:48.150Z,1020.8
2023-05-09T05:02:04.350Z,1020.8
2023-05-09T05:03:20.522Z,1020.7
2023-05-09T05:04:36.718Z,1020.7
2023-05-09T05:05:52.693Z,1020.7
2023-05-09T05:07:07.893Z,1020.7
2023-05-09T05:08:24.292Z,1020.7
2023-05-09T05:09:40.497Z,1020.7
2023-05-09T05:10:56.473Z,1020.7
2023-05-09T05:12:12.660Z,1020.7
2023-05-09T05:13:28.081Z,1020.7
2023-05-09T05:14:44.053Z,1020.7
2023-05-09T05:16:00.450Z,1020.7
2023-05-09T05:17:16.427Z,1020.7
2023-05-09T05:18:32.628Z,1020.7
2023-05-09T05:19:49.020Z,1020.8
2023-05-09T05:21:05.221Z,1020.7
2023-05-09T05:22:21.184Z,1020.8
2023-05-09T05:23:37.374Z,1020.7
2023-05-09T05:24:53.776Z,1020.7
2023-05-09T05:26:09.761Z,1020.8
2023-05-09T05:27:25.937Z,1020.7
2023-05-09T05:28:42.135Z,1020.7
2023-05-09T05:29:57.344Z,1020.7
2023-05-09T05:31:13.518Z,1020.7
2023-05-09T05:32:29.936Z,1020.7
2023-05-09T05:33:45.921Z,1020.6
2023-05-09T05:35:02.305Z,1020.6
2023-05-09T05:36:18.270Z,1020.6
2023-05-09T05:37:34.473Z,1020.7
2023-05-09T05:38:50.874Z,1020.5
2023-05-09T05:40:06.842Z,1020.6
2023-05-09T05:41:23.039Z,1020.6
2023-05-09T05:42:39.438Z,1020.6
2023-05-09T05:43:55.417Z,1020.6
2023-05-09T05:45:11.597Z,1020.6
2023-05-09T05:46:26.809Z,1020.6
2023-05-09T05:47:43.208Z,1020.6
2023-05-09T05:48:59.177Z,1020.5
2023-05-09T05:50:15.594Z,1020.4
2023-05-09T05:51:31.550Z,1020.5
2023-05-09T05:52:47.974Z,1020.5
2023-05-09T05:54:04.163Z,1020.5
2023-05-09T05:55:20.346Z,1020.4
2023-05-09T05:56:36.316Z,1020.5
2023-05-09T05:57:52.731Z,1020.4
2023-05-09T05:59:08.921Z,1020.4
2023-05-09T06:00:24.878Z,1020.4
2023-05-09T06:01:41.061Z,1020.4
2023-05-09T06:02:56.270Z,1020.3
2023-05-09T06:04:12.690Z,1020.4
2023-05-09T06:05:28.866Z,1020.3
2023-05-09T06:06:45.056Z,1020.2
2023-05-09T06:08:01.030Z,1020.2
2023-05-09T06:09:17.217Z,1020.2
2023-05-09T06:10:33.399Z,1020.2
2023-05-09T06:11:49.583Z,1020.2
2023-05-09T06:13:05.779Z,1020.2
2023-05-09T06:14:22.201Z,1020.2
2023-05-09T06:15:38.147Z,1020.1
2023-05-09T06:16:54.346Z,1020.2
2023-05-09T06:18:10.761Z,1020.1
2023-05-09T06:19:25.974Z,1020.1
2023-05-09T06:20:42.157Z,1020.1
2023-05-09T06:21:58.115Z,1020.2
2023-05-09T06:23:14.304Z,1020.1
2023-05-09T06:24:30.491Z,1020.1
2023-05-09T06:25:46.902Z,1020
2023-05-09T06:27:02.868Z,1020.1
2023-05-09T06:28:19.285Z,1020
2023-05-09T06:29:35.472Z,1020
2023-05-09T06:30:51.435Z,1020
2023-05-09T06:32:07.850Z,1020
2023-05-09T06:33:23.810Z,1019.9
2023-05-09T06:34:39.993Z,1020
2023-05-09T06:35:55.434Z,1020
2023-05-09T06:37:11.620Z,1020
2023-05-09T06:38:27.825Z,1019.9
2023-05-09T06:39:43.776Z,1019.9
2023-05-09T06:40:59.962Z,1019.9
2023-05-09T06:42:16.142Z,1019.9
2023-05-09T06:43:32.572Z,1019.9
2023-05-09T06:44:48.750Z,1019.9
2023-05-09T06:46:04.723Z,1019.8
2023-05-09T06:48:37.330Z,1019.9
2023-05-09T06:49:53.275Z,1019.8
2023-05-09T06:51:09.697Z,1019.8
2023-05-09T06:52:24.900Z,1019.8
2023-05-09T06:53:40.872Z,1019.8
2023-05-09T06:54:57.279Z,1019.8
2023-05-09T06:56:13.485Z,1019.7
2023-05-09T06:57:29.662Z,1019.7
2023-05-09T06:58:45.840Z,1019.6
2023-05-09T07:00:01.799Z,1019.8
2023-05-09T07:01:18.220Z,1019.7
2023-05-09T07:02:34.177Z,1019.7
2023-05-09T07:03:50.602Z,1019.7
2023-05-09T07:05:06.776Z,1019.6
2023-05-09T07:06:22.979Z,1019.6
2023-05-09T07:07:39.151Z,1019.6
2023-05-09T07:08:54.364Z,1019.6
2023-05-09T07:10:10.557Z,1019.5
2023-05-09T07:11:26.743Z,1019.6
2023-05-09T07:12:42.684Z,1019.5
2023-05-09T07:13:59.106Z,1019.4
2023-05-09T07:15:15.069Z,1019.4
2023-05-09T07:16:31.247Z,1019.4
2023-05-09T07:17:47.424Z,1019.4
2023-05-09T07:19:03.865Z,1019.3
2023-05-09T07:20:19.797Z,1019.3
2023-05-09T07:21:36.240Z,1019.2
2023-05-09T07:22:52.428Z,1019.3
2023-05-09T07:24:08.363Z,1019.2
2023-05-09T07:25:23.566Z,1019.2
2023-05-09T07:26:39.999Z,1019.2
2023-05-09T07:27:55.937Z,1019.2
2023-05-09T07:29:12.365Z,1019.2
2023-05-09T07:30:28.314Z,1019.2
2023-05-09T07:31:44.497Z,1019.2
2023-05-09T07:33:00.940Z,1019.1
2023-05-09T07:34:17.124Z,1019.1
2023-05-09T07:35:33.299Z,1019.2
2023-05-09T07:36:49.000Z,1019.2
2023-05-09T07:38:05.683Z,1019.1
2023-05-09T07:39:21.867Z,1019.1
2023-05-09T07:40:38.067Z,1019.1
2023-05-09T07:41:53.013Z,1019.1
2023-05-09T07:43:09.202Z,1019.1
2023-05-09T07:44:25.640Z,1018.9
2023-05-09T07:45:41.815Z,1018.9
2023-05-09T07:46:57.772Z,1018.9
2023-05-09T07:48:13.942Z,1018.9
2023-05-09T07:49:30.139Z,1018.9
2023-05-09T07:50:46.314Z,1018.9
2023-05-09T07:52:02.764Z,1018.9
2023-05-09T07:53:18.695Z,1018.9
2023-05-09T07:54:34.893Z,1018.8
2023-05-09T07:55:51.065Z,1018.8
2023-05-09T07:57:07.251Z,1018.7
2023-05-09T07:58:22.456Z,1018.8
2023-05-09T07:59:38.890Z,1018.8
2023-05-09T08:00:55.073Z,1018.8
2023-05-09T08:02:11.028Z,1018.8
2023-05-09T08:03:27.198Z,1018.8
2023-05-09T08:04:43.396Z,1018.7
2023-05-09T08:05:59.830Z,1018.6
2023-05-09T08:07:15.768Z,1018.6
2023-05-09T08:08:31.964Z,1018.6
2023-05-09T08:09:48.400Z,1018.6
2023-05-09T08:11:04.576Z,1018.6
2023-05-09T08:12:20.774Z,1018.5
2023-05-09T08:13:36.964Z,1018.5
2023-05-09T08:14:51.908Z,1018.6
2023-05-09T08:16:08.103Z,1018.6
2023-05-09T08:17:24.289Z,1018.5
2023-05-09T08:18:40.463Z,1018.6
2023-05-09T08:19:56.902Z,1018.4
2023-05-09T08:21:12.850Z,1018.4
2023-05-09T08:22:29.278Z,1018.5
2023-05-09T08:23:45.205Z,1018.5
2023-05-09T08:25:01.396Z,1018.4
2023-05-09T08:26:17.833Z,1018.4
2023-05-09T08:27:33.766Z,1018.4
2023-05-09T08:28:49.956Z,1018.4
2023-05-09T08:30:06.412Z,1018.4
2023-05-09T08:31:21.613Z,1018.4
2023-05-09T08:32:37.793Z,1018.4
2023-05-09T08:33:53.716Z,1018.4
2023-05-09T08:35:10.171Z,1018.3
2023-05-09T08:36:26.360Z,1018.4
2023-05-09T08:37:42.534Z,1018.4
2023-05-09T08:38:58.721Z,1018.4
2023-05-09T08:40:14.919Z,1018.4
2023-05-09T08:41:31.099Z,1018.4
2023-05-09T08:42:47.282Z,1018.3
2023-05-09T08:44:03.472Z,1018.4
2023-05-09T08:45:19.402Z,1018.3
2023-05-09T08:46:35.594Z,1018.3
2023-05-09T08:47:50.805Z,1018.3
2023-05-09T08:49:06.986Z,1018.3
2023-05-09T08:50:23.438Z,1018.3
2023-05-09T08:51:39.359Z,1018.3
2023-05-09T08:52:55.803Z,1018.4
2023-05-09T08:54:11.725Z,1018.4
2023-05-09T08:55:27.920Z,1018.3
2023-05-09T08:56:44.106Z,1018.4
2023-05-09T08:58:00.548Z,1018.3
2023-05-09T08:59:16.485Z,1018.3
2023-05-09T09:00:32.930Z,1018.3
2023-05-09T09:01:49.105Z,1018.1
2023-05-09T09:03:05.043Z,1018.2
2023-05-09T09:04:20.512Z,1018.2
2023-05-09T09:05:36.696Z,1018.2
2023-05-09T09:06:52.621Z,1018.2
2023-05-09T09:08:09.072Z,1018.2
2023-05-09T09:09:24.988Z,1018.2
2023-05-09T09:10:41.171Z,1018.1
2023-05-09T09:11:57.356Z,1018.1
2023-05-09T09:13:13.812Z,1018.2
2023-05-09T09:14:29.740Z,1018.1
2023-05-09T09:15:46.197Z,1018.1
2023-05-09T09:17:02.384Z,1018.2
2023-05-09T09:18:18.561Z,1018.1
2023-05-09T09:19:34.486Z,1018.1
2023-05-09T09:20:49.682Z,1018
2023-05-09T09:22:05.875Z,1018
2023-05-09T09:23:22.321Z,1018
2023-05-09T09:24:38.256Z,1018
2023-05-09T09:25:54.447Z,1017.9
2023-05-09T09:27:10.897Z,1018
2023-05-09T09:28:26.089Z,1018
2023-05-09T09:29:42.294Z,1018
2023-05-09T09:30:58.196Z,1017.9
2023-05-09T09:32:14.381Z,1017.9
2023-05-09T09:33:30.580Z,1018
2023-05-09T09:34:47.040Z,1017.9
2023-05-09T09:36:03.226Z,1018
2023-05-09T09:37:19.147Z,1017.8
2023-05-09T09:38:35.596Z,1017.9
2023-05-09T09:39:51.503Z,1017.8
2023-05-09T09:41:07.708Z,1017.9
2023-05-09T09:42:24.154Z,1017.8
2023-05-09T09:43:40.069Z,1017.8
2023-05-09T09:44:55.280Z,1017.8
2023-05-09T09:46:11.465Z,1017.9
2023-05-09T09:48:43.828Z,1017.8
2023-05-09T09:50:00.012Z,1017.8
2023-05-09T09:51:16.477Z,1017.7
2023-05-09T09:52:32.386Z,1017.7
2023-05-09T09:53:48.573Z,1017.6
2023-05-09T09:55:05.044Z,1017.7
2023-05-09T09:56:20.963Z,1017.5
2023-05-09T09:57:37.147Z,1017.6
2023-05-09T09:58:53.596Z,1017.6
2023-05-09T10:00:09.521Z,1017.6
2023-05-09T10:01:25.002Z,1017.5
2023-05-09T10:02:40.907Z,1017.5
2023-05-09T10:03:57.373Z,1017.5
2023-05-09T10:05:13.550Z,1017.4
2023-05-09T10:06:29.743Z,1017.5
2023-05-09T10:07:45.936Z,1017.4
2023-05-09T10:09:01.837Z,1017.5
2023-05-09T10:10:18.312Z,1017.5
2023-05-09T10:11:34.219Z,1017.5
2023-05-09T10:12:50.397Z,1017.5
2023-05-09T10:14:06.863Z,1017.5
2023-05-09T10:15:22.766Z,1017.5
2023-05-09T10:16:39.242Z,1017.5
2023-05-09T10:17:54.449Z,1017.5
2023-05-09T10:19:10.346Z,1017.4
2023-05-09T10:20:26.825Z,1017.4
2023-05-09T10:21:43.001Z,1017.4
2023-05-09T10:22:58.920Z,1017.3
2023-05-09T10:24:15.100Z,1017.3
2023-05-09T10:25:31.575Z,1017.3
2023-05-09T10:26:47.470Z,1017.3
2023-05-09T10:28:03.664Z,1017.4
2023-05-09T10:29:20.136Z,1017.4
2023-05-09T10:30:36.320Z,1017.3
2023-05-09T10:31:52.213Z,1017.3
2023-05-09T10:33:08.400Z,1017.3
2023-05-09T10:34:23.618Z,1017.3
2023-05-09T10:35:39.796Z,1017.3
2023-05-09T10:36:56.270Z,1017.2
2023-05-09T10:38:12.163Z,1017.2
2023-05-09T10:39:28.368Z,1017.2
2023-05-09T10:40:44.540Z,1017.2
2023-05-09T10:42:00.725Z,1017.1
2023-05-09T10:43:16.921Z,1017.2
2023-05-09T10:44:33.115Z,1017.1
2023-05-09T10:45:49.578Z,1017
2023-05-09T10:47:05.762Z,1017.1
2023-05-09T10:48:21.674Z,1017.1
2023-05-09T10:49:37.853Z,1017.1
2023-05-09T10:50:53.340Z,1017
2023-05-09T10:52:09.524Z,1017.1
2023-05-09T10:53:25.428Z,1017.1
2023-05-09T10:54:41.896Z,1017.1
2023-05-09T10:55:58.093Z,1017.1
2023-05-09T10:57:13.985Z,1017
2023-05-09T10:58:30.467Z,1016.9
2023-05-09T10:59:46.660Z,1017
2023-05-09T11:01:02.558Z,1016.9
2023-05-09T11:02:19.031Z,1016.9
2023-05-09T11:03:34.921Z,1016.8
2023-05-09T11:04:51.115Z,1016.8
2023-05-09T11:06:07.304Z,1016.8
2023-05-09T11:07:22.499Z,1016.8
2023-05-09T11:08:38.982Z,1016.8
2023-05-09T11:09:55.169Z,1016.8
2023-05-09T11:11:11.360Z,1016.7
2023-05-09T11:12:27.244Z,1016.7
2023-05-09T11:13:43.428Z,1016.7
2023-05-09T11:14:59.622Z,1016.7
2023-05-09T11:16:15.812Z,1016.6
2023-05-09T11:17:32.007Z,1016.6
2023-05-09T11:18:48.190Z,1016.5
2023-05-09T11:20:04.382Z,1016.5
2023-05-09T11:21:20.569Z,1016.5
2023-05-09T11:22:37.042Z,1016.5
2023-05-09T11:23:52.251Z,1016.5
2023-05-09T11:25:08.428Z,1016.4
2023-05-09T11:26:24.318Z,1016.4
2023-05-09T11:27:40.501Z,1016.4
2023-05-09T11:28:56.697Z,1016.3
2023-05-09T11:30:13.173Z,1016.3
2023-05-09T11:31:29.060Z,1016.2
2023-05-09T11:32:45.550Z,1016.2
2023-05-09T11:34:01.745Z,1016.2
2023-05-09T11:35:17.631Z,1016.2
2023-05-09T11:36:34.108Z,1016.1
2023-05-09T11:37:50.305Z,1016.1
2023-05-09T11:39:06.183Z,1016
2023-05-09T11:40:21.701Z,1015.9
2023-05-09T11:41:37.872Z,1015.9
2023-05-09T11:42:54.034Z,1015.9
2023-05-09T11:44:10.216Z,1016
2023-05-09T11:45:26.431Z,1015.8
2023-05-09T11:46:42.586Z,1015.9
2023-05-09T11:47:58.816Z,1016
2023-05-09T11:49:15.003Z,1015.8
2023-05-09T11:50:31.185Z,1015.8
2023-05-09T11:51:47.345Z,1015.8
2023-05-09T11:53:03.533Z,1015.7
2023-05-09T11:54:19.712Z,1015.7
2023-05-09T11:55:35.913Z,1015.6
2023-05-09T11:56:51.097Z,1015.6
2023-05-09T11:58:07.338Z,1015.6
2023-05-09T11:59:23.513Z,1015.6
2023-05-09T12:00:39.712Z,1015.6
2023-05-09T12:01:55.903Z,1015.6
2023-05-09T12:03:12.079Z,1015.5
2023-05-09T12:04:28.225Z,1015.5
2023-05-09T12:05:44.447Z,1015.6
2023-05-09T12:07:00.596Z,1015.5
2023-05-09T12:08:16.821Z,1015.5
2023-05-09T12:09:32.981Z,1015.4
2023-05-09T12:10:49.196Z,1015.4
2023-05-09T12:12:05.392Z,1015.3
2023-05-09T12:13:20.559Z,1015.3
2023-05-09T12:14:36.792Z,1015.3
2023-05-09T12:15:52.968Z,1015.3
2023-05-09T12:17:09.110Z,1015.3
2023-05-09T12:18:25.352Z,1015.3
2023-05-09T12:19:41.495Z,1015.3
2023-05-09T12:20:57.684Z,1015.2
2023-05-09T12:22:13.864Z,1015.2
2023-05-09T12:23:30.092Z,1015.2
2023-05-09T12:24:46.248Z,1015.2
2023-05-09T12:26:02.430Z,1015.1
2023-05-09T12:27:18.667Z,1015
2023-05-09T12:28:34.793Z,1015
2023-05-09T12:29:50.002Z,1015.1
2023-05-09T12:31:06.228Z,1015
2023-05-09T12:32:22.378Z,1015.1
2023-05-09T12:33:38.606Z,1015
2023-05-09T12:34:54.759Z,1015
2023-05-09T12:36:10.951Z,1015
2023-05-09T12:37:27.136Z,1015
2023-05-09T12:38:43.318Z,1014.9
2023-05-09T12:39:59.547Z,1014.9
2023-05-09T12:41:15.732Z,1014.9
2023-05-09T12:42:31.889Z,1014.8
2023-05-09T12:43:48.058Z,1014.8
2023-05-09T12:45:04.304Z,1014.8
2023-05-09T12:46:19.509Z,1014.9
2023-05-09T12:47:35.639Z,1014.9
2023-05-09T12:48:51.872Z,1014.9
2023-05-09T12:50:08.071Z,1014.8
2023-05-09T12:51:24.202Z,1014.8
2023-05-09T12:52:40.449Z,1014.9
2023-05-09T12:53:56.587Z,1014.8
2023-05-09T12:55:12.758Z,1014.7
2023-05-09T12:56:28.994Z,1014.7
2023-05-09T12:57:45.146Z,1014.7
2023-05-09T12:59:01.339Z,1014.7
2023-05-09T13:00:17.570Z,1014.7
2023-05-09T13:01:33.757Z,1014.7
2023-05-09T13:02:48.907Z,1014.7
2023-05-09T13:04:05.140Z,1014.6
2023-05-09T13:05:21.273Z,1014.7
2023-05-09T13:06:37.466Z,1014.6
2023-05-09T13:07:53.653Z,1014.6
2023-05-09T13:09:09.896Z,1014.5
2023-05-09T13:10:26.030Z,1014.6
2023-05-09T13:11:42.259Z,1014.6
2023-05-09T13:12:58.000Z,1014.5
2023-05-09T13:14:14.636Z,1014.5
2023-05-09T13:15:30.836Z,1014.4
2023-05-09T13:16:47.025Z,1014.5
2023-05-09T13:18:03.206Z,1014.4
2023-05-09T13:19:18.355Z,1014.4
2023-05-09T13:20:34.538Z,1014.5
2023-05-09T13:21:50.731Z,1014.5
2023-05-09T13:23:06.962Z,1014.5
2023-05-09T13:24:23.111Z,1014.4
2023-05-09T13:25:39.298Z,1014.4
2023-05-09T13:26:55.528Z,1014.4
2023-05-09T13:28:11.715Z,1014.4
2023-05-09T13:29:27.861Z,1014.4
2023-05-09T13:30:44.100Z,1014.3
2023-05-09T13:32:00.290Z,1014.3
2023-05-09T13:33:16.425Z,1014.2
2023-05-09T13:34:32.651Z,1014.3
2023-05-09T13:35:47.800Z,1014.2
2023-05-09T13:37:04.044Z,1014.2
2023-05-09T13:38:20.174Z,1014.2
2023-05-09T13:39:36.425Z,1014.1
2023-05-09T13:40:52.616Z,1014.1
2023-05-09T13:42:08.808Z,1014.1
2023-05-09T13:43:24.011Z,1014
2023-05-09T13:44:40.126Z,1014
2023-05-09T13:45:56.330Z,1014
2023-05-09T13:47:12.579Z,1014
2023-05-09T13:48:28.693Z,1013.9
2023-05-09T13:49:44.951Z,1013.9
2023-05-09T13:51:01.069Z,1013.9
2023-05-09T13:52:17.264Z,1013.9
2023-05-09T13:53:33.501Z,1013.8
2023-05-09T13:54:49.629Z,1013.8
2023-05-09T13:56:05.882Z,1013.7
2023-05-09T13:58:38.202Z,1013.8
2023-05-09T13:59:53.472Z,1013.7
2023-05-09T14:01:09.658Z,1013.8
2023-05-09T14:02:25.828Z,1013.7
2023-05-09T14:03:41.968Z,1013.7
2023-05-09T14:04:58.216Z,1013.6
2023-05-09T14:06:14.400Z,1013.7
2023-05-09T14:07:30.530Z,1013.6
2023-05-09T14:08:46.772Z,1013.6
2023-05-09T14:10:02.970Z,1013.6
2023-05-09T14:11:19.077Z,1013.5
2023-05-09T14:12:35.277Z,1013.5
2023-05-09T14:13:51.453Z,1013.5
2023-05-09T14:15:07.703Z,1013.5
2023-05-09T14:16:22.851Z,1013.4
2023-05-09T14:17:39.106Z,1013.5
2023-05-09T14:18:55.221Z,1013.5
2023-05-09T14:20:11.485Z,1013.4
2023-05-09T14:21:27.658Z,1013.4
2023-05-09T14:22:43.784Z,1013.4
2023-05-09T14:23:59.966Z,1013.4
2023-05-09T14:25:16.227Z,1013.4
2023-05-09T14:26:32.350Z,1013.4
2023-05-09T14:27:48.611Z,1013.4
2023-05-09T14:29:04.710Z,1013.3
2023-05-09T14:30:20.900Z,1013.3
2023-05-09T14:31:37.158Z,1013.3
2023-05-09T14:32:52.287Z,1013.2
2023-05-09T14:34:08.548Z,1013.2
2023-05-09T14:35:24.749Z,1013.2
2023-05-09T14:36:40.869Z,1013.2
2023-05-09T14:37:57.056Z,1013.2
2023-05-09T14:39:13.237Z,1013.1
2023-05-09T14:40:29.432Z,1013.1
2023-05-09T14:41:45.612Z,1013.1
2023-05-09T14:43:01.872Z,1013
2023-05-09T14:44:18.047Z,1013
2023-05-09T14:45:34.175Z,1013.1
2023-05-09T14:46:50.429Z,1013
2023-05-09T14:48:06.623Z,1013.1
2023-05-09T14:49:21.749Z,1013
2023-05-09T14:50:37.925Z,1013
2023-05-09T14:51:54.122Z,1013.1
2023-05-09T14:53:10.311Z,1012.9
2023-05-09T14:54:26.493Z,1013
2023-05-09T14:55:42.763Z,1013
2023-05-09T14:56:58.947Z,1012.9
2023-05-09T14:58:15.130Z,1012.9
2023-05-09T14:59:31.316Z,1012.9
2023-05-09T15:00:47.425Z,1012.9
2023-05-09T15:02:03.621Z,1013
2023-05-09T15:03:19.876Z,1012.8
2023-05-09T15:04:36.065Z,1012.8
2023-05-09T15:05:51.192Z,1012.8
2023-05-09T15:07:07.395Z,1012.9
2023-05-09T15:08:23.578Z,1012.8
2023-05-09T15:09:39.845Z,1012.8
2023-05-09T15:10:56.014Z,1012.8
2023-05-09T15:12:12.139Z,1012.8
2023-05-09T15:13:28.313Z,1012.7
2023-05-09T15:14:44.579Z,1012.7
2023-05-09T15:16:00.693Z,1012.7
2023-05-09T15:17:16.872Z,1012.7
2023-05-09T15:18:33.143Z,1012.6
2023-05-09T15:19:49.261Z,1012.6
2023-05-09T15:21:05.527Z,1012.6
2023-05-09T15:22:20.728Z,1012.6
2023-05-09T15:23:36.910Z,1012.6
2023-05-09T15:24:53.107Z,1012.6
2023-05-09T15:26:09.286Z,1012.5
2023-05-09T15:27:25.387Z,1012.5
2023-05-09T15:28:41.668Z,1012.5
2023-05-09T15:29:57.850Z,1012.4
2023-05-09T15:31:13.957Z,1012.4
2023-05-09T15:32:30.138Z,1012.4
2023-05-09T15:33:46.409Z,1012.4
2023-05-09T15:35:02.597Z,1012.4
2023-05-09T15:36:18.697Z,1012.4
2023-05-09T15:37:34.973Z,1012.4
2023-05-09T15:38:50.173Z,1012.4
2023-05-09T15:40:06.278Z,1012.5
2023-05-09T15:41:22.556Z,1012.4
2023-05-09T15:42:38.649Z,1012.3
2023-05-09T15:43:54.920Z,1012.5
2023-05-09T15:45:11.036Z,1012.4
2023-05-09T15:46:27.223Z,1012.4
2023-05-09T15:47:43.481Z,1012.4
2023-05-09T15:48:59.592Z,1012.4
2023-05-09T15:50:15.856Z,1012.4
2023-05-09T15:51:32.055Z,1012.4
2023-05-09T15:52:48.163Z,1012.4
2023-05-09T15:54:04.352Z,1012.4
2023-05-09T15:55:19.547Z,1012.4
2023-05-09T15:56:35.819Z,1012.3
2023-05-09T15:57:52.012Z,1012.3
2023-05-09T15:59:08.199Z,1012.2
2023-05-09T16:00:24.380Z,1012.2
2023-05-09T16:01:40.490Z,1012.3
2023-05-09T16:02:56.753Z,1012.3